Linkwood, Maryland
Current Conditions -  °F | °C
As of 1:00 PM on Sunday 23 Nov 2014 (Local Time) from KCGE Reporting Station
Clear Clear  
Wind Chill: 13°   Ceiling: Unl
Heat Index: 13°   Visibility: 10mi
Dew Point:   Wind: 5mph
Humidity: 58%   Direction: 200°SSW
Pressure: 30.16"   Gusts: NA
Location:  38.54°N, 75.95°W
Report Text: KCGE 231800Z AUTO 20004KT 10SM CLR 13/05 A3016 RMK AO1
Loading
Personal Weather Stations






























Interactive Weather Map New forecast layout! Learn more

10-Day Weather Forecast

Advertisements
Track Severe Weather on mobile